Accueil
METAR-TAF:

METAR-TAF

Aéroports :

Aéroport international de Dubaï

Dubaï, Émirats arabes unis

latitude: 25-15-10N, longitude: 055-21-52E, altitude: 8 m

Observation

Le bulletin a été fait il y a 17 minutes, à 11:00 UTC
Vent 13 kt de ouest/nord-ouest
Température 38°C
Humidité 57%
Pression 997 hPa
Visibilité: 6000 m

METAR: OMDB 201100Z 30013KT 6000 NSC 38/28 Q0997 NOSIG

Heure: 15:17 (11:17 UTC)

Prévision

Le bulletin a été fait il y a 6 heures et 20 minutes, à 04:57 UTC
Prévision valable du 20 à 06 UTC au 21 à 12 UTC
Vent 5 kt de est
Visibilité: 8000 m
Evoluant progressivement
du 20 à 07 UTC au 20 à 09 UTC
Vent 12 kt de nord/nord-ouest
Evoluant progressivement
du 20 à 19 UTC au 20 à 21 UTC
Vent 5 kt de est/nord-est
Evoluant progressivement
du 21 à 07 UTC au 21 à 09 UTC
Vent 14 kt de nord/nord-ouest

TAF: OMDB 200457Z 2006/2112 10005KT 8000 NSC BECMG 2007/2009 33012KT BECMG 2019/2021 07005KT BECMG 2107/2109 34014KT

Observations et prévisions météorologiques de plus de 4000 aéroports (messages METAR et TAF).

Les stations disponibles sont représentées par des disques jaunes et rouges sur la carte.

Passer la souris dessus pour voir le nom de la station.

Cliquer dessus pour voir les observations et prévisions météorologiques.

Pour changer de carte: cliquez sur les boutons verts avec une croix noire pour zoomer, sur le bouton vert avec un tiret pour effectuer un zoom arrière, ou sur les flèches vertes pour les cartes adjacentes.


METAR-TAF: